Time;durP1;ratioP1;P1;durP2;ratioP2;P2;SDS_P1;SDS_P2;PMS_P1;PMS_P2;Temp;Humidity;BMP_temperature;BMP_pressure;BME280_temperature;BME280_humidity;BME280_pressure;Samples;Min_cycle;Max_cycle;Signal;HPM_P1;HPM_P2
2022/08/10 00:01:04;;;;;;;0.90;0.90;;;;;;;19.04;74.09;102888.44;4984937;28;20030;-66
2022/08/10 00:03:29;;;;;;;1.38;0.80;;;;;;;18.99;74.82;102882.44;4984611;28;20031;-64
2022/08/10 00:05:55;;;;;;;2.25;1.05;;;;;;;19.00;74.91;102886.81;4984947;28;20054;-66
2022/08/10 00:08:23;;;;;;;2.60;1.13;;;;;;;19.04;74.09;102883.09;4984088;28;20038;-66
2022/08/10 00:10:50;;;;;;;2.25;1.10;;;;;;;19.03;74.61;102881.38;4985093;28;20022;-66
2022/08/10 00:13:15;;;;;;;4.32;0.95;;;;;;;18.98;74.53;102888.69;4983148;28;20035;-66
2022/08/10 00:15:41;;;;;;;3.33;1.20;;;;;;;18.95;74.32;102881.66;4985074;28;20452;-66
2022/08/10 00:18:06;;;;;;;3.83;1.38;;;;;;;18.97;74.63;102887.81;4983927;28;20433;-67
2022/08/10 00:20:31;;;;;;;1.83;1.00;;;;;;;19.01;73.98;102886.78;4984123;28;20113;-65
2022/08/10 00:22:58;;;;;;;1.08;1.02;;;;;;;18.88;74.77;102883.69;4985086;28;20804;-64
2022/08/10 00:25:23;;;;;;;1.00;1.00;;;;;;;18.80;75.62;102885.75;4984187;28;20044;-64
2022/08/10 00:27:48;;;;;;;4.53;1.10;;;;;;;18.71;74.89;102881.63;4985080;28;20485;-64
2022/08/10 00:30:13;;;;;;;1.48;1.10;;;;;;;18.83;74.38;102885.66;4984826;28;20030;-64
2022/08/10 00:32:39;;;;;;;1.25;1.20;;;;;;;18.78;75.26;102871.59;4982385;28;20117;-64
2022/08/10 00:35:05;;;;;;;2.38;1.30;;;;;;;18.80;74.85;102875.06;4985234;28;20069;-65
2022/08/10 00:37:30;;;;;;;1.77;1.42;;;;;;;18.67;75.06;102869.31;4983694;28;20026;-64
2022/08/10 00:39:55;;;;;;;2.55;1.20;;;;;;;18.84;74.35;102874.03;4983176;28;20591;-64
2022/08/10 00:42:21;;;;;;;2.92;1.20;;;;;;;18.64;74.93;102877.44;4984503;28;20113;-63
2022/08/10 00:44:48;;;;;;;1.83;1.13;;;;;;;18.77;74.83;102878.75;4984680;28;20026;-64
2022/08/10 00:47:15;;;;;;;1.58;1.25;;;;;;;18.76;74.13;102876.13;4984638;28;20022;-63
2022/08/10 00:49:40;;;;;;;1.23;1.20;;;;;;;18.58;75.14;102873.19;4984691;28;20030;-63
2022/08/10 00:52:06;;;;;;;3.17;1.20;;;;;;;18.59;74.92;102877.59;4983926;28;20049;-65
2022/08/10 00:54:34;;;;;;;1.50;1.40;;;;;;;18.55;75.07;102870.63;4982137;28;20036;-65
2022/08/10 00:56:59;;;;;;;1.27;1.25;;;;;;;18.48;75.64;102879.78;4984666;28;20034;-65
2022/08/10 00:59:25;;;;;;;1.38;1.33;;;;;;;18.44;75.86;102876.34;4985261;28;20022;-64
2022/08/10 01:01:50;;;;;;;3.72;1.42;;;;;;;18.53;74.97;102878.69;4986460;28;20027;-65
2022/08/10 01:04:16;;;;;;;1.55;1.45;;;;;;;18.48;75.68;102877.13;4987431;28;20039;-64
2022/08/10 01:06:55;;;;;;;1.30;1.20;;;;;;;18.43;75.84;102872.78;4987858;28;20113;-65
2022/08/10 01:09:32;;;;;;;2.17;1.35;;;;;;;18.42;75.62;102872.84;4987301;28;20382;-65
2022/08/10 01:12:08;;;;;;;2.55;1.60;;;;;;;18.28;76.22;102871.56;4987996;28;20120;-66
2022/08/10 01:14:36;;;;;;;3.67;1.60;;;;;;;18.38;76.27;102872.09;4985933;28;20370;-65
2022/08/10 01:17:09;;;;;;;3.88;1.77;;;;;;;18.33;75.84;102868.69;4988023;28;20026;-65
2022/08/10 01:20:08;;;;;;;1.52;1.40;;;;;;;18.10;76.82;102864.13;4985569;28;20593;-65
2022/08/10 01:22:52;;;;;;;1.70;1.60;;;;;;;18.16;76.38;102862.16;4986584;28;20061;-65
2022/08/10 01:25:45;;;;;;;4.55;1.45;;;;;;;18.25;76.43;102860.09;4985620;28;20022;-66
2022/08/10 01:28:50;;;;;;;1.40;1.30;;;;;;;18.10;77.10;102861.47;4987558;28;20060;-65
2022/08/10 01:31:20;;;;;;;2.47;1.83;;;;;;;18.17;76.74;102860.34;4986403;28;20478;-65
2022/08/10 01:34:12;;;;;;;1.77;1.50;;;;;;;18.19;76.88;102858.53;4985233;28;20437;-66
2022/08/10 01:36:50;;;;;;;2.85;1.67;;;;;;;18.16;76.79;102864.84;4990303;28;20186;-65
2022/08/10 01:39:22;;;;;;;1.60;1.50;;;;;;;18.15;76.78;102856.88;4964614;28;20696;-65
2022/08/10 01:41:50;;;;;;;1.50;1.40;;;;;;;18.02;77.25;102856.38;4965885;28;20039;-65
2022/08/10 01:44:21;;;;;;;2.55;1.58;;;;;;;18.06;77.50;102852.69;4966053;28;20030;-67
2022/08/10 01:46:50;;;;;;;3.10;1.52;;;;;;;18.02;77.31;102859.91;4967778;28;20233;-66
2022/08/10 01:49:17;;;;;;;1.77;1.50;;;;;;;18.14;77.60;102861.34;4966646;28;20034;-65
2022/08/10 01:51:46;;;;;;;5.32;2.08;;;;;;;18.06;77.48;102860.69;4966525;28;20035;-65
2022/08/10 01:54:12;;;;;;;;;;;;;;;18.16;77.19;102854.16;4967767;28;20121;-65
2022/08/10 01:56:40;;;;;;;1.23;1.23;;;;;;;18.18;76.97;102851.41;4987027;28;20065;-63
2022/08/10 01:59:12;;;;;;;1.65;1.40;;;;;;;18.12;77.44;102851.66;4985276;28;20058;-66
2022/08/10 02:01:48;;;;;;;1.55;1.45;;;;;;;18.04;77.69;102857.22;4985555;28;20032;-65
2022/08/10 02:04:15;;;;;;;4.40;1.70;;;;;;;17.98;78.15;102855.63;4985322;28;20764;-67
2022/08/10 02:06:44;;;;;;;2.45;1.45;;;;;;;18.03;77.86;102852.81;4985417;28;20030;-63
2022/08/10 02:09:14;;;;;;;2.00;1.80;;;;;;;17.93;78.33;102853.09;4984706;28;20027;-63
2022/08/10 02:11:40;;;;;;;2.22;1.73;;;;;;;17.91;78.25;102854.94;4985580;28;20049;-65
2022/08/10 02:14:06;;;;;;;6.00;1.92;;;;;;;17.99;77.84;102856.47;4985018;28;20026;-64
2022/08/10 02:16:31;;;;;;;1.85;1.65;;;;;;;18.03;77.80;102843.00;4986251;28;20034;-63
2022/08/10 02:18:57;;;;;;;1.92;1.80;;;;;;;17.98;78.26;102852.06;4986186;28;20049;-66
2022/08/10 02:21:23;;;;;;;3.33;1.60;;;;;;;17.94;79.24;102853.97;4983954;28;20061;-63
2022/08/10 02:23:49;;;;;;;1.95;1.85;;;;;;;18.00;78.75;102853.75;4985880;28;20682;-64
2022/08/10 02:26:14;;;;;;;1.90;1.80;;;;;;;18.00;78.10;102852.91;4986225;28;20033;-64
2022/08/10 02:28:40;;;;;;;3.92;2.03;;;;;;;17.99;78.30;102851.13;4986577;28;20038;-63
2022/08/10 02:31:09;;;;;;;5.80;1.90;;;;;;;17.86;79.08;102848.03;4985740;28;20030;-64
2022/08/10 02:33:36;;;;;;;2.70;2.10;;;;;;;17.75;79.50;102846.56;4985462;28;20034;-64
2022/08/10 02:36:04;;;;;;;2.72;1.90;;;;;;;17.93;78.71;102849.56;4983777;28;20079;-67
2022/08/10 02:38:32;;;;;;;2.35;2.15;;;;;;;17.78;79.01;102848.25;4984361;28;20409;-63
2022/08/10 02:41:29;;;;;;;1.93;1.70;;;;;;;17.77;79.47;102844.75;4984097;28;20034;-63
2022/08/10 02:43:58;;;;;;;3.50;2.17;;;;;;;17.75;79.15;102853.69;4983947;28;20096;-64
2022/08/10 02:46:44;;;;;;;3.17;1.90;;;;;;;17.78;78.95;102846.47;4983108;28;20030;-63
2022/08/10 02:49:14;;;;;;;2.00;1.80;;;;;;;17.73;79.04;102843.06;4984749;28;20035;-64
2022/08/10 02:51:56;;;;;;;2.15;1.88;;;;;;;17.74;79.00;102843.97;4983729;28;20026;-64
2022/08/10 02:54:27;;;;;;;3.60;1.90;;;;;;;17.75;79.02;102833.25;4984771;28;20022;-64
2022/08/10 02:57:04;;;;;;;8.00;2.45;;;;;;;17.69;79.85;102833.44;4985553;28;20465;-64
2022/08/10 02:59:59;;;;;;;3.05;1.95;;;;;;;17.61;79.88;102827.50;4985939;28;20029;-63
2022/08/10 03:02:35;;;;;;;3.40;2.05;;;;;;;17.63;80.05;102822.97;4968119;28;20042;-63
2022/08/10 03:05:10;;;;;;;3.90;2.22;;;;;;;17.63;80.68;102826.53;4982893;28;20052;-63
2022/08/10 03:07:51;;;;;;;7.65;2.13;;;;;;;17.70;79.79;102839.66;4984955;28;20389;-64
2022/08/10 03:10:18;;;;;;;7.25;2.15;;;;;;;17.62;80.40;102830.13;4982925;28;20453;-65
2022/08/10 03:12:46;;;;;;;3.65;2.08;;;;;;;17.75;79.72;102827.03;4984005;28;20022;-65
2022/08/10 03:15:12;;;;;;;2.03;1.92;;;;;;;17.71;80.30;102820.94;4984041;28;20019;-64
2022/08/10 03:17:39;;;;;;;2.20;2.00;;;;;;;17.67;80.78;102817.50;4986039;28;20081;-63
2022/08/10 03:20:06;;;;;;;2.50;2.30;;;;;;;17.56;81.26;102816.97;4984763;28;20034;-65
2022/08/10 03:22:31;;;;;;;3.38;1.92;;;;;;;17.67;81.10;102817.50;4983734;28;20031;-66
2022/08/10 03:24:58;;;;;;;3.55;2.50;;;;;;;17.61;81.14;102816.84;4982569;28;20556;-65
2022/08/10 03:27:23;;;;;;;3.40;2.60;;;;;;;17.53;81.67;102814.41;4983960;28;20469;-66
2022/08/10 03:29:50;;;;;;;7.13;2.65;;;;;;;17.49;82.12;102821.63;4966446;28;20172;-64
2022/08/10 03:32:16;;;;;;;2.70;2.50;;;;;;;17.48;82.04;102816.34;4982877;28;20022;-64
2022/08/10 03:34:41;;;;;;;2.83;2.58;;;;;;;17.52;82.24;102818.84;4984265;28;20033;-63
2022/08/10 03:37:06;;;;;;;4.60;2.67;;;;;;;17.50;81.91;102819.84;4985220;28;20457;-66
2022/08/10 03:39:32;;;;;;;4.95;2.58;;;;;;;17.57;82.17;102824.03;4983408;28;20563;-63
2022/08/10 03:41:59;;;;;;;6.30;2.67;;;;;;;17.52;81.88;102810.00;4982841;28;20045;-64
2022/08/10 03:44:27;;;;;;;3.22;2.92;;;;;;;17.49;81.74;102818.09;4984849;28;20153;-64
2022/08/10 03:46:54;;;;;;;4.70;3.13;;;;;;;17.50;81.77;102817.16;4984196;28;20034;-65
2022/08/10 03:49:21;;;;;;;3.22;2.97;;;;;;;17.45;82.03;102819.13;4983711;28;20092;-65
2022/08/10 03:51:48;;;;;;;3.75;2.85;;;;;;;17.41;82.52;102819.22;4982805;28;20026;-67
2022/08/10 03:54:15;;;;;;;4.63;3.05;;;;;;;17.36;83.10;102814.94;4982770;28;20114;-67
2022/08/10 03:56:41;;;;;;;4.38;3.15;;;;;;;17.36;83.25;102820.25;4984410;28;20023;-66
2022/08/10 03:59:09;;;;;;;4.25;3.72;;;;;;;17.25;83.96;102816.13;4983339;28;20796;-67
2022/08/10 04:01:34;;;;;;;6.18;3.50;;;;;;;17.16;84.11;102814.63;4983790;28;20498;-66
2022/08/10 04:04:00;;;;;;;4.03;3.47;;;;;;;17.24;84.70;102817.06;4983384;28;20105;-66
2022/08/10 04:06:25;;;;;;;4.18;3.63;;;;;;;17.25;84.12;102817.94;4982787;28;20042;-67
2022/08/10 04:08:51;;;;;;;4.40;4.00;;;;;;;17.24;84.37;102810.84;4983818;28;20038;-67
2022/08/10 04:11:16;;;;;;;5.45;3.55;;;;;;;17.27;84.49;102813.44;4984354;28;20025;-66
2022/08/10 04:13:42;;;;;;;5.53;3.38;;;;;;;17.17;85.30;102815.50;4984308;28;20657;-66
2022/08/10 04:16:07;;;;;;;6.25;3.40;;;;;;;17.26;84.78;102817.03;4983177;28;20026;-63
2022/08/10 04:18:32;;;;;;;4.60;3.60;;;;;;;17.28;84.39;102823.19;4984951;28;20034;-65
2022/08/10 04:21:02;;;;;;;4.95;3.40;;;;;;;17.26;84.79;102819.69;4984010;28;20031;-67
2022/08/10 04:23:30;;;;;;;5.80;3.85;;;;;;;17.27;84.89;102816.97;4977855;28;20034;-67
2022/08/10 04:25:56;;;;;;;7.13;4.17;;;;;;;17.28;84.68;102828.50;4983230;28;20088;-66
2022/08/10 04:28:22;;;;;;;4.05;3.75;;;;;;;17.19;85.18;102819.00;4982697;28;20042;-68
2022/08/10 04:30:49;;;;;;;4.07;3.58;;;;;;;17.30;84.85;102824.88;4984729;28;20654;-66
2022/08/10 04:33:16;;;;;;;4.05;3.67;;;;;;;17.33;84.56;102815.91;4978510;28;20122;-67
2022/08/10 04:35:42;;;;;;;4.93;4.28;;;;;;;17.16;85.77;102819.94;4980151;28;20132;-66
2022/08/10 04:38:08;;;;;;;5.68;4.38;;;;;;;17.24;85.53;102822.41;4986250;28;20018;-68
2022/08/10 04:40:33;;;;;;;6.72;4.03;;;;;;;17.27;85.82;102818.75;4988072;28;20559;-65
2022/08/10 04:43:00;;;;;;;5.10;4.10;;;;;;;17.37;85.76;102816.69;4987518;28;20023;-65
2022/08/10 04:45:25;;;;;;;6.68;3.85;;;;;;;17.39;85.89;102820.16;4987234;28;20022;-66
2022/08/10 04:47:51;;;;;;;6.70;5.00;;;;;;;17.42;85.61;102810.28;4988008;28;20381;-65
2022/08/10 04:50:16;;;;;;;6.18;4.78;;;;;;;17.45;85.58;102808.47;4988117;28;20508;-65
2022/08/10 04:52:41;;;;;;;5.95;4.78;;;;;;;17.46;85.74;102810.19;4987392;28;20061;-66
2022/08/10 04:55:07;;;;;;;7.38;4.40;;;;;;;17.56;85.84;102816.97;4987161;28;20059;-67
2022/08/10 04:57:33;;;;;;;5.70;4.55;;;;;;;17.55;85.61;102812.59;4988203;28;20113;-66
2022/08/10 04:59:58;;;;;;;6.85;5.40;;;;;;;17.48;85.99;102813.66;4987271;28;20038;-65
2022/08/10 05:02:23;;;;;;;6.88;4.75;;;;;;;17.59;85.84;102814.22;4986664;28;20045;-65
2022/08/10 05:04:49;;;;;;;6.47;4.80;;;;;;;17.58;86.35;102815.13;4987501;28;20053;-65
2022/08/10 05:07:14;;;;;;;6.35;5.20;;;;;;;17.59;86.41;102816.88;4986346;28;20436;-65
2022/08/10 05:09:40;;;;;;;7.53;5.50;;;;;;;17.72;85.57;102813.78;4985068;28;20030;-67
2022/08/10 05:12:06;;;;;;;9.05;4.80;;;;;;;17.78;85.40;102822.47;4987652;28;20019;-66
2022/08/10 05:14:32;;;;;;;8.38;5.55;;;;;;;17.74;85.67;102819.97;4985928;28;20061;-65
2022/08/10 05:16:57;;;;;;;8.90;6.50;;;;;;;17.77;85.81;102819.88;4986273;28;20073;-64
2022/08/10 05:19:23;;;;;;;6.15;4.90;;;;;;;17.84;85.35;102820.53;4987128;28;20041;-64
2022/08/10 05:21:48;;;;;;;7.43;5.60;;;;;;;17.93;85.24;102818.44;4987593;28;20054;-64
2022/08/10 05:24:13;;;;;;;7.43;5.72;;;;;;;17.99;84.71;102813.81;4985741;28;20054;-63
2022/08/10 05:26:39;;;;;;;9.40;5.97;;;;;;;17.98;85.35;102817.41;4986852;28;20023;-63
2022/08/10 05:29:04;;;;;;;6.07;5.47;;;;;;;18.05;85.09;102817.16;4987105;28;20469;-66
2022/08/10 05:31:29;;;;;;;7.05;5.22;;;;;;;18.10;84.41;102814.34;4985541;28;20034;-63
2022/08/10 05:33:55;;;;;;;6.85;5.30;;;;;;;18.12;85.03;102820.50;4973944;28;20043;-68
2022/08/10 05:36:20;;;;;;;8.05;5.28;;;;;;;18.08;85.42;102821.50;4967052;28;20062;-66
2022/08/10 05:38:47;;;;;;;6.60;5.32;;;;;;;18.25;84.74;102812.06;4967349;28;20486;-65
2022/08/10 05:41:14;;;;;;;6.15;5.55;;;;;;;18.26;85.03;102814.69;4967728;28;20031;-65
2022/08/10 05:43:39;;;;;;;8.52;5.63;;;;;;;18.39;84.74;102811.59;4967930;28;20422;-66
2022/08/10 05:46:05;;;;;;;11.10;6.03;;;;;;;18.18;85.47;102814.94;4967145;28;20035;-65
2022/08/10 05:48:30;;;;;;;7.50;5.68;;;;;;;18.42;84.31;102811.47;4986519;28;20392;-67
2022/08/10 05:50:55;;;;;;;9.32;5.85;;;;;;;18.40;84.67;102811.53;4986159;28;20038;-67
2022/08/10 05:53:21;;;;;;;8.65;6.07;;;;;;;18.46;84.57;102817.56;4984289;28;20027;-66
2022/08/10 05:55:46;;;;;;;7.32;6.28;;;;;;;18.59;84.21;102821.53;4987362;28;20030;-65
2022/08/10 05:58:12;;;;;;;7.75;6.40;;;;;;;18.66;83.96;102825.72;4986749;28;20782;-65
2022/08/10 06:00:39;;;;;;;9.10;6.22;;;;;;;18.52;84.83;102825.34;4985921;28;20353;-64
2022/08/10 06:03:07;;;;;;;6.95;6.07;;;;;;;18.61;84.48;102821.47;4975746;28;20085;-66
2022/08/10 06:05:36;;;;;;;9.30;5.95;;;;;;;18.68;84.58;102828.34;4966813;28;20058;-65
2022/08/10 06:08:15;;;;;;;12.05;6.35;;;;;;;18.49;85.59;102820.13;4966263;28;20417;-67
2022/08/10 06:10:40;;;;;;;;;;;;;;;18.85;84.14;102816.16;4985933;28;20811;-65
2022/08/10 06:15:55;;;;;;;8.45;5.53;;;;;;;19.11;83.07;102815.19;4985942;28;20041;-65
2022/08/10 06:18:21;;;;;;;6.47;5.80;;;;;;;19.09;83.20;102821.53;4985813;28;20461;-66
2022/08/10 06:20:49;;;;;;;19.77;6.45;;;;;;;19.14;82.95;102825.75;4986107;28;20034;-69
2022/08/10 06:23:14;;;;;;;8.23;6.25;;;;;;;19.10;83.08;102818.78;4985435;28;20045;-70
2022/08/10 06:25:40;;;;;;;8.02;6.40;;;;;;;19.15;83.01;102822.13;4985726;28;20018;-67
2022/08/10 06:28:08;;;;;;;7.45;5.95;;;;;;;19.33;82.85;102822.38;4987097;28;20030;-66
2022/08/10 06:30:34;;;;;;;8.70;6.57;;;;;;;19.42;82.04;102823.81;4985267;28;20045;-64
2022/08/10 06:33:01;;;;;;;8.40;5.50;;;;;;;19.66;81.39;102821.91;4966860;28;20116;-66
2022/08/10 06:35:31;;;;;;;8.45;5.70;;;;;;;19.66;81.41;102821.06;4968430;28;20084;-66
2022/08/10 06:37:57;;;;;;;9.23;6.43;;;;;;;19.72;80.58;102822.63;4974413;28;20029;-67
2022/08/10 06:40:28;;;;;;;8.52;6.00;;;;;;;19.64;81.23;102823.81;4983315;28;20026;-66
2022/08/10 06:42:55;;;;;;;12.50;6.50;;;;;;;19.65;81.29;102820.19;4983703;28;20031;-65
2022/08/10 06:45:24;;;;;;;10.07;6.35;;;;;;;19.93;80.36;102821.69;4983562;28;20132;-66
2022/08/10 06:47:58;;;;;;;10.25;6.50;;;;;;;19.81;80.51;102814.22;4983562;28;20026;-68
2022/08/10 06:50:39;;;;;;;8.82;6.28;;;;;;;20.00;79.83;102818.78;4982701;28;20018;-65
2022/08/10 06:53:11;;;;;;;8.95;6.00;;;;;;;20.12;79.20;102820.97;4980718;28;20030;-66
2022/08/10 06:55:39;;;;;;;7.20;6.40;;;;;;;20.15;78.84;102822.63;4982215;28;20426;-66
2022/08/10 06:58:05;;;;;;;11.70;6.40;;;;;;;20.18;79.07;102823.38;4980998;28;20014;-65
2022/08/10 07:00:32;;;;;;;12.40;6.53;;;;;;;20.22;78.99;102829.44;4983129;28;20022;-66
2022/08/10 07:03:03;;;;;;;10.98;6.20;;;;;;;20.42;78.57;102833.94;4984783;28;20030;-67
2022/08/10 07:05:29;;;;;;;6.68;5.65;;;;;;;20.54;78.51;102828.97;4980224;28;20038;-67
2022/08/10 07:07:57;;;;;;;9.80;5.72;;;;;;;20.55;77.69;102830.69;4982712;28;20432;-65
2022/08/10 07:10:24;;;;;;;8.00;5.47;;;;;;;20.61;77.10;102834.91;4982420;28;20042;-63
2022/08/10 07:12:53;;;;;;;11.32;6.32;;;;;;;20.58;76.96;102833.25;4985550;28;20041;-67
2022/08/10 07:15:19;;;;;;;7.15;5.53;;;;;;;20.69;76.67;102836.31;4966652;28;20034;-68
2022/08/10 07:17:45;;;;;;;9.35;5.53;;;;;;;20.71;77.39;102829.06;4985031;28;20057;-69
2022/08/10 07:20:15;;;;;;;9.68;6.15;;;;;;;20.82;77.16;102827.69;4983916;28;20030;-66
2022/08/10 07:22:41;;;;;;;8.88;6.38;;;;;;;20.94;76.34;102827.19;4983263;28;20031;-65
2022/08/10 07:25:07;;;;;;;8.85;6.32;;;;;;;20.92;76.56;102821.00;4984423;28;20022;-67
2022/08/10 07:27:33;;;;;;;15.30;5.90;;;;;;;20.77;76.49;102816.34;4984486;28;20477;-67
2022/08/10 07:29:59;;;;;;;7.07;5.88;;;;;;;20.99;76.01;102818.94;4984065;28;20022;-66
2022/08/10 07:32:25;;;;;;;6.32;5.18;;;;;;;21.02;75.54;102816.09;4981653;28;20113;-65
2022/08/10 07:34:52;;;;;;;7.68;6.20;;;;;;;20.96;76.66;102825.28;4983379;28;20641;-66
2022/08/10 07:37:19;;;;;;;6.13;5.53;;;;;;;21.18;75.76;102823.41;4978718;28;20058;-66
2022/08/10 07:39:46;;;;;;;9.10;5.38;;;;;;;21.29;74.78;102820.22;4964465;28;20030;-65
2022/08/10 07:42:12;;;;;;;6.28;5.40;;;;;;;21.38;74.89;102819.78;4963612;28;20430;-66
2022/08/10 07:44:43;;;;;;;7.07;5.43;;;;;;;21.43;75.22;102817.72;4964225;28;20037;-64
2022/08/10 07:47:13;;;;;;;7.90;5.50;;;;;;;21.62;74.65;102821.31;4963294;28;20026;-65
2022/08/10 07:49:40;;;;;;;11.38;5.90;;;;;;;21.42;75.28;102832.06;4963071;28;20031;-65
2022/08/10 07:52:07;;;;;;;7.65;5.53;;;;;;;21.55;75.03;102828.81;4978875;28;20018;-64
2022/08/10 07:54:41;;;;;;;8.80;5.47;;;;;;;21.56;74.64;102836.78;4984362;28;20105;-63
2022/08/10 07:57:16;;;;;;;6.75;5.63;;;;;;;21.57;74.33;102835.81;4983216;28;20373;-65
2022/08/10 07:59:44;;;;;;;8.23;5.10;;;;;;;21.68;74.07;102837.97;4984147;28;20362;-64
2022/08/10 08:02:36;;;;;;;10.25;5.63;;;;;;;21.56;74.05;102846.63;4982599;28;20496;-66
2022/08/10 08:05:06;;;;;;;9.48;5.55;;;;;;;21.62;73.92;102846.31;4983274;28;20513;-64
2022/08/10 08:07:32;;;;;;;5.28;4.22;;;;;;;21.75;73.46;102846.59;4983370;28;20035;-64
2022/08/10 08:09:58;;;;;;;6.10;4.50;;;;;;;21.86;73.32;102847.88;4986955;28;20125;-64
2022/08/10 08:12:24;;;;;;;8.25;4.57;;;;;;;21.97;73.28;102848.19;4980721;28;20052;-64
2022/08/10 08:14:50;;;;;;;7.38;4.78;;;;;;;22.01;73.05;102836.38;4967606;28;20604;-66
2022/08/10 08:17:17;;;;;;;4.22;3.83;;;;;;;22.17;72.69;102833.75;4986042;28;20768;-65
2022/08/10 08:19:45;;;;;;;9.48;4.75;;;;;;;22.23;71.57;102837.94;5003345;28;20061;-65
2022/08/10 08:22:11;;;;;;;8.88;4.00;;;;;;;22.49;71.36;102830.34;4987328;28;20521;-68
2022/08/10 08:24:38;;;;;;;4.28;3.45;;;;;;;22.72;70.44;102833.63;5000713;28;20121;-66
2022/08/10 08:27:04;;;;;;;6.07;3.70;;;;;;;22.82;69.93;102834.00;5005553;28;20076;-65
2022/08/10 08:29:35;;;;;;;5.15;3.42;;;;;;;22.92;69.38;102827.16;5007395;28;20022;-64
2022/08/10 08:32:02;;;;;;;7.38;3.35;;;;;;;22.85;69.40;102828.47;5006124;28;20025;-65
2022/08/10 08:34:29;;;;;;;7.38;3.58;;;;;;;22.77;69.66;102830.69;5006331;28;20037;-66
2022/08/10 08:36:55;;;;;;;6.18;3.33;;;;;;;22.77;68.42;102823.50;5007257;28;20386;-64
2022/08/10 08:39:20;;;;;;;5.70;3.05;;;;;;;22.87;68.79;102834.59;5007705;28;20489;-65
2022/08/10 08:41:58;;;;;;;7.25;2.92;;;;;;;22.93;68.66;102826.19;4999709;28;20062;-64
2022/08/10 08:44:39;;;;;;;6.28;3.38;;;;;;;22.98;68.59;102823.25;4986400;28;20084;-64
2022/08/10 08:47:22;;;;;;;6.30;3.25;;;;;;;22.99;68.53;102827.66;4987129;28;20024;-66
2022/08/10 08:50:28;;;;;;;7.97;3.00;;;;;;;23.27;67.49;102828.78;4987087;28;20489;-65
2022/08/10 08:53:09;;;;;;;4.93;2.63;;;;;;;23.53;66.57;102822.91;4986087;28;20046;-65
2022/08/10 08:55:55;;;;;;;18.40;2.63;;;;;;;23.60;65.74;102818.94;4987199;28;20054;-66
2022/08/10 08:58:57;;;;;;;4.32;2.63;;;;;;;23.63;65.95;102813.34;4986438;28;20054;-66
2022/08/10 09:01:40;;;;;;;5.43;3.13;;;;;;;23.56;65.65;102820.03;4986219;28;20076;-64
2022/08/10 09:04:22;;;;;;;4.15;2.35;;;;;;;23.72;65.18;102806.56;4986547;28;20042;-65
2022/08/10 09:07:10;;;;;;;2.63;2.42;;;;;;;23.54;64.67;102808.53;4985369;28;20487;-65
2022/08/10 09:09:55;;;;;;;5.13;2.45;;;;;;;23.78;64.46;102799.94;4984757;28;20039;-67
2022/08/10 09:12:32;;;;;;;4.20;2.40;;;;;;;23.68;64.50;102800.50;4985274;28;20030;-66
2022/08/10 09:15:22;;;;;;;6.88;2.17;;;;;;;23.75;63.82;102797.44;4987496;28;20048;-66
2022/08/10 09:17:52;;;;;;;4.75;2.10;;;;;;;24.00;63.56;102801.34;4987336;28;20034;-64
2022/08/10 09:20:36;;;;;;;4.47;1.80;;;;;;;24.03;61.57;102798.47;4984754;28;20030;-65
2022/08/10 09:23:23;;;;;;;5.95;1.63;;;;;;;24.39;60.65;102799.03;4985871;28;20022;-65
2022/08/10 09:25:54;;;;;;;3.85;1.40;;;;;;;24.56;60.23;102793.44;4965467;28;20034;-66
2022/08/10 09:28:25;;;;;;;8.05;1.90;;;;;;;24.44;59.27;102789.69;4966852;28;20031;-65
2022/08/10 09:31:05;;;;;;;7.47;1.77;;;;;;;24.55;60.40;102783.63;4966580;28;20019;-66
2022/08/10 09:33:51;;;;;;;14.20;1.83;;;;;;;24.58;59.82;102785.25;4965687;28;20118;-65
2022/08/10 09:36:16;;;;;;;4.95;1.80;;;;;;;24.87;58.76;102782.56;4967731;28;20027;-64
2022/08/10 09:39:15;;;;;;;7.50;1.80;;;;;;;25.24;58.43;102782.84;4966891;28;20041;-66
2022/08/10 09:42:00;;;;;;;3.97;2.17;;;;;;;25.05;58.83;102775.13;4967536;28;20287;-65
2022/08/10 09:44:50;;;;;;;2.10;1.70;;;;;;;25.01;58.08;102770.84;4975728;28;20031;-65
2022/08/10 09:47:31;;;;;;;2.90;1.80;;;;;;;25.07;58.69;102764.22;4984730;28;20038;-66
2022/08/10 09:50:27;;;;;;;2.22;1.63;;;;;;;25.28;58.22;102769.16;4984295;28;20030;-65
2022/08/10 09:53:02;;;;;;;4.90;1.40;;;;;;;25.49;57.39;102761.44;4985324;28;20030;-64
2022/08/10 09:56:06;;;;;;;3.85;1.42;;;;;;;25.71;57.06;102760.84;4985241;28;20030;-65
2022/08/10 09:59:09;;;;;;;3.70;1.88;;;;;;;25.71;57.19;102755.47;4986406;28;20114;-65
2022/08/10 10:01:45;;;;;;;3.75;1.40;;;;;;;25.93;55.69;102753.97;4986545;28;20029;-64
2022/08/10 10:04:29;;;;;;;5.55;1.50;;;;;;;25.90;55.36;102747.91;4985172;28;20050;-64
2022/08/10 10:06:55;;;;;;;7.72;1.63;;;;;;;25.96;55.55;102747.50;4985004;28;20049;-65
2022/08/10 10:09:29;;;;;;;5.57;1.58;;;;;;;25.84;55.55;102749.22;4985327;28;20030;-67
2022/08/10 10:12:13;;;;;;;6.80;1.40;;;;;;;26.09;55.95;102736.69;4983760;28;20089;-66
2022/08/10 10:18:00;;;;;;;3.88;1.50;;;;;;;26.45;54.73;102732.34;4986400;28;20069;-64
2022/08/10 10:21:02;;;;;;;5.28;1.63;;;;;;;26.64;53.01;102732.84;4973144;28;20191;-64
2022/08/10 10:24:09;;;;;;;4.03;1.60;;;;;;;26.77;52.87;102725.56;4984977;28;20046;-64
2022/08/10 10:26:42;;;;;;;1.40;1.10;;;;;;;26.97;52.93;102728.63;4955181;28;20076;-66
2022/08/10 10:29:29;;;;;;;4.80;1.40;;;;;;;27.23;51.88;102723.97;4985287;28;20030;-67
2022/08/10 10:32:21;;;;;;;4.78;1.50;;;;;;;27.23;50.80;102721.28;4983587;28;20019;-65
2022/08/10 10:34:55;;;;;;;3.70;1.35;;;;;;;27.20;50.94;102726.03;4984147;28;20033;-64
2022/08/10 10:37:21;;;;;;;2.95;1.20;;;;;;;27.37;51.87;102727.47;4985060;28;20034;-65
2022/08/10 10:39:51;;;;;;;3.38;1.33;;;;;;;27.51;50.81;102718.28;4984971;28;20027;-65
2022/08/10 10:42:48;;;;;;;3.20;1.30;;;;;;;27.55;48.32;102714.38;4986188;28;20026;-64
2022/08/10 10:45:18;;;;;;;6.38;1.58;;;;;;;27.50;49.11;102717.44;4984493;28;20283;-64
2022/08/10 10:48:01;;;;;;;4.68;1.52;;;;;;;27.68;50.11;102714.28;4984721;28;20469;-65
2022/08/10 10:50:38;;;;;;;3.08;1.15;;;;;;;27.93;47.79;102706.94;4983877;28;20030;-65
2022/08/10 10:53:20;;;;;;;1.42;1.15;;;;;;;28.07;47.37;102704.97;4982898;28;20113;-66
2022/08/10 10:56:10;;;;;;;5.88;1.60;;;;;;;28.15;49.66;102710.66;4984699;28;20018;-65
2022/08/10 10:58:42;;;;;;;6.63;1.40;;;;;;;28.48;44.72;102705.34;4984759;28;20030;-65
2022/08/10 11:01:22;;;;;;;2.30;1.33;;;;;;;28.32;44.94;102703.03;4984796;28;20034;-63
2022/08/10 11:04:04;;;;;;;4.10;1.35;;;;;;;28.35;45.52;102711.75;4984580;28;20014;-65
2022/08/10 11:06:47;;;;;;;2.70;1.00;;;;;;;28.45;43.58;102706.47;4983935;28;20030;-63
2022/08/10 11:09:35;;;;;;;3.65;1.17;;;;;;;28.38;43.44;102702.50;4981198;28;20048;-65
2022/08/10 11:12:10;;;;;;;4.15;1.23;;;;;;;28.65;42.71;102698.50;4980336;28;20116;-64
2022/08/10 11:14:40;;;;;;;2.20;1.10;;;;;;;29.02;42.84;102694.63;4983666;28;20471;-66
2022/08/10 11:17:39;;;;;;;1.45;1.02;;;;;;;28.86;43.00;102693.16;4983856;28;20034;-65
2022/08/10 11:20:21;;;;;;;2.03;1.20;;;;;;;28.89;41.84;102694.75;4968948;28;20201;-65
2022/08/10 11:23:01;;;;;;;1.85;1.30;;;;;;;29.13;41.85;102694.56;4966437;28;20041;-63
2022/08/10 11:25:29;;;;;;;5.15;1.33;;;;;;;29.28;41.33;102686.09;4964656;28;20031;-65
2022/08/10 11:28:16;;;;;;;3.17;1.23;;;;;;;29.52;41.55;102691.25;4976706;28;20030;-64
2022/08/10 11:30:53;;;;;;;2.97;1.00;;;;;;;29.45;42.45;102694.63;4985143;28;20382;-66
2022/08/10 11:33:27;;;;;;;3.30;1.30;;;;;;;29.63;42.46;102689.50;4983974;28;20038;-64
2022/08/10 11:35:58;;;;;;;3.30;1.20;;;;;;;29.55;41.89;102686.56;4984005;28;20030;-65
2022/08/10 11:38:25;;;;;;;9.65;1.30;;;;;;;30.01;39.87;102687.94;4982658;28;20102;-66
2022/08/10 11:41:28;;;;;;;1.63;1.15;;;;;;;29.74;40.84;102689.38;4983089;28;20039;-65
2022/08/10 11:44:08;;;;;;;6.43;1.23;;;;;;;29.61;42.19;102683.31;4984877;28;20206;-64
2022/08/10 11:46:36;;;;;;;5.93;1.25;;;;;;;29.85;39.94;102664.00;4984114;28;20034;-64
2022/08/10 11:49:07;;;;;;;3.47;1.30;;;;;;;29.85;39.96;102676.72;4983874;28;20370;-66
2022/08/10 11:51:32;;;;;;;2.50;1.38;;;;;;;29.63;42.42;102673.19;4984820;28;20037;-65